Wetterdaten: Woche 31.08.20 - 06.09.20 (KW36)
Datum Zeit Temp. Aussen Temp. o. S. Temp +5cm Feuchte Auss Luftdruck Regen Sonnenschein Regendauer Solar Windben Empfang
31.08.2020 00:00 15,8 C 14,2 C 14,4 C 97 % 1014,4 hPa 1,6 l/m 0,00 h 0,57 h 0 W/m 4,3 km/h (1 Bft) 97,08 %
31.08.2020 01:00 15,2 C 13,8 C 13,9 C 98 % 1014,9 hPa 1,2 l/m 0,00 h 0,70 h 0 W/m 2,7 km/h (1 Bft) 96,88 %
31.08.2020 02:00 14,6 C 13,3 C 13,4 C 98 % 1015,3 hPa 0,2 l/m 0,00 h 0,13 h 0 W/m 1,9 km/h (1 Bft) 97,65 %
31.08.2020 03:00 14,3 C 13,2 C 13,3 C 99 % 1015,5 hPa 0,0 l/m 0,00 h 0,20 h 0 W/m 1,4 km/h (1 Bft) 98,45 %
31.08.2020 04:00 14,1 C 12,8 C 13,1 C 99 % 1015,9 hPa 0,0 l/m 0,00 h 0,03 h 0 W/m 2,0 km/h (1 Bft) 95,61 %
31.08.2020 05:00 13,8 C 12,8 C 12,8 C 99 % 1016,2 hPa 0,0 l/m 0,00 h 0,00 h 0 W/m 4,0 km/h (1 Bft) 97,65 %
31.08.2020 06:00 13,8 C 12,8 C 12,8 C 99 % 1016,7 hPa 0,0 l/m 0,00 h 0,00 h 0 W/m 2,6 km/h (1 Bft) 98,70 %
31.08.2020 07:00 13,8 C 12,8 C 12,8 C 100 % 1017,3 hPa 0,0 l/m 0,00 h 0,00 h 15 W/m 3,2 km/h (1 Bft) 97,22 %
31.08.2020 08:00 14,0 C 13,5 C 13,2 C 100 % 1017,9 hPa 0,0 l/m 0,00 h 0,00 h 62 W/m 2,1 km/h (1 Bft) 96,27 %
31.08.2020 09:00 14,3 C 14,1 C 13,4 C 100 % 1018,4 hPa 0,0 l/m 0,00 h 0,00 h 92 W/m 3,6 km/h (1 Bft) 98,44 %
31.08.2020 10:00 14,7 C 14,4 C 13,8 C 100 % 1018,9 hPa 0,0 l/m 0,00 h 0,00 h 104 W/m 3,5 km/h (1 Bft) 96,91 %
31.08.2020 11:00 14,1 C 13,6 C 13,1 C 100 % 1019,3 hPa 0,0 l/m 0,00 h 0,00 h 84 W/m 7,2 km/h (2 Bft) 96,23 %
31.08.2020 12:00 14,3 C 15,5 C 13,7 C 98 % 1019,6 hPa 0,0 l/m 0,00 h 0,00 h 199 W/m 7,2 km/h (2 Bft) 97,57 %
31.08.2020 13:00 16,2 C 19,5 C 14,9 C 92 % 1019,8 hPa 0,0 l/m 0,53 h 0,00 h 385 W/m 8,1 km/h (2 Bft) 99,01 %
31.08.2020 14:00 18,9 C 24,4 C 15,8 C 81 % 1019,6 hPa 0,0 l/m 1,00 h 0,00 h 665 W/m 8,9 km/h (2 Bft) 96,79 %
31.08.2020 15:00 21,4 C 26,6 C 17,3 C 71 % 1019,4 hPa 0,0 l/m 0,97 h 0,00 h 729 W/m 9,2 km/h (2 Bft) 97,65 %
31.08.2020 16:00 21,5 C 24,3 C 18,0 C 68 % 1019,2 hPa 0,0 l/m 0,93 h 0,00 h 535 W/m 9,4 km/h (2 Bft) 97,79 %
31.08.2020 17:00 21,2 C 23,2 C 18,2 C 67 % 1019,2 hPa 0,0 l/m 0,87 h 0,00 h 432 W/m 9,1 km/h (2 Bft) 97,81 %
31.08.2020 18:00 19,9 C 18,5 C 16,3 C 68 % 1019,2 hPa 0,0 l/m 0,07 h 0,00 h 97 W/m 5,9 km/h (2 Bft) 97,57 %
31.08.2020 19:00 18,1 C 16,6 C 15,6 C 74 % 1019,2 hPa 0,0 l/m 0,07 h 0,00 h 44 W/m 6,6 km/h (2 Bft) 95,73 %
31.08.2020 20:00 16,8 C 15,2 C 14,6 C 77 % 1019,5 hPa 0,0 l/m 0,00 h 0,00 h 8 W/m 5,5 km/h (1 Bft) 98,66 %
31.08.2020 21:00 15,7 C 14,0 C 13,9 C 82 % 1019,8 hPa 0,0 l/m 0,00 h 0,00 h 0 W/m 3,5 km/h (1 Bft) 97,94 %
31.08.2020 22:00 15,0 C 13,7 C 13,3 C 84 % 1019,9 hPa 0,0 l/m 0,00 h 0,00 h 0 W/m 2,2 km/h (1 Bft) 97,86 %
31.08.2020 23:00 14,5 C 12,9 C 12,6 C 85 % 1019,9 hPa 0,0 l/m 0,00 h 0,00 h 0 W/m 1,0 km/h (0 Bft) 96,23 %
01.09.2020 00:00 13,7 C 12,1 C 12,0 C 86 % 1020,2 hPa 0,0 l/m 0,00 h 0,00 h 0 W/m 0,2 km/h (0 Bft) 98,41 %
01.09.2020 01:00 13,0 C 11,8 C 11,7 C 88 % 1020,4 hPa 0,0 l/m 0,00 h 0,00 h 0 W/m 0,7 km/h (0 Bft) 97,79 %
01.09.2020 02:00 12,4 C 10,5 C 10,5 C 89 % 1020,1 hPa 0,0 l/m 0,00 h 0,00 h 0 W/m 0,3 km/h (0 Bft) 97,59 %
01.09.2020 03:00 11,5 C 9,5 C 9,5 C 89 % 1019,9 hPa 0,0 l/m 0,00 h 0,00 h 0 W/m 0,0 km/h (0 Bft) 98,30 %
01.09.2020 04:00 10,6 C 9,1 C 9,2 C 90 % 1019,7 hPa 0,0 l/m 0,00 h 0,00 h 0 W/m 0,1 km/h (0 Bft) 95,18 %
01.09.2020 05:00 10,3 C 9,2 C 9,2 C 92 % 1019,7 hPa 0,0 l/m 0,00 h 0,00 h 0 W/m 0,3 km/h (0 Bft) 98,56 %
01.09.2020 06:00 10,2 C 9,1 C 9,2 C 94 % 1019,6 hPa 0,0 l/m 0,00 h 0,00 h 5 W/m 0,3 km/h (0 Bft) 96,26 %
01.09.2020 07:00 10,1 C 9,4 C 9,3 C 95 % 1019,8 hPa 0,0 l/m 0,00 h 0,00 h 19 W/m 1,2 km/h (1 Bft) 97,59 %
01.09.2020 08:00 10,5 C 10,8 C 10,4 C 96 % 1020,1 hPa 0,0 l/m 0,00 h 0,00 h 49 W/m 0,5 km/h (0 Bft) 95,69 %
01.09.2020 09:00 12,1 C 15,9 C 14,3 C 97 % 1020,1 hPa 0,0 l/m 0,23 h 0,00 h 197 W/m 1,8 km/h (1 Bft) 98,71 %
01.09.2020 10:00 16,5 C 23,2 C 19,4 C 89 % 1020,0 hPa 0,0 l/m 0,97 h 0,00 h 530 W/m 6,6 km/h (2 Bft) 97,45 %
01.09.2020 11:00 18,5 C 22,8 C 16,7 C 77 % 1019,8 hPa 0,0 l/m 0,53 h 0,00 h 442 W/m 6,6 km/h (2 Bft) 96,58 %
01.09.2020 12:00 20,2 C 24,7 C 17,9 C 71 % 1019,5 hPa 0,0 l/m 0,67 h 0,00 h 570 W/m 7,4 km/h (2 Bft) 98,30 %
01.09.2020 13:00 20,4 C 20,1 C 17,7 C 68 % 1019,3 hPa 0,0 l/m 0,07 h 0,00 h 213 W/m 6,8 km/h (2 Bft) 96,96 %
01.09.2020 14:00 19,1 C 19,3 C 17,5 C 71 % 1019,2 hPa 0,0 l/m 0,00 h 0,00 h 200 W/m 5,3 km/h (1 Bft) 97,64 %
01.09.2020 15:00 19,1 C 19,3 C 17,3 C 71 % 1018,8 hPa 0,0 l/m 0,00 h 0,00 h 186 W/m 5,1 km/h (1 Bft) 98,23 %
01.09.2020 16:00 19,2 C 20,6 C 17,7 C 71 % 1018,5 hPa 0,0 l/m 0,23 h 0,00 h 240 W/m 5,0 km/h (1 Bft) 98,44 %
01.09.2020 17:00 20,1 C 19,9 C 17,5 C 68 % 1018,3 hPa 0,0 l/m 0,17 h 0,00 h 172 W/m 5,4 km/h (1 Bft) 94,94 %
01.09.2020 18:00 18,9 C 18,5 C 16,8 C 71 % 1018,0 hPa 0,0 l/m 0,40 h 0,00 h 116 W/m 5,4 km/h (1 Bft) 98,98 %
01.09.2020 19:00 18,2 C 16,6 C 15,6 C 71 % 1018,1 hPa 0,0 l/m 0,00 h 0,00 h 37 W/m 2,0 km/h (1 Bft) 98,98 %
01.09.2020 20:00 16,9 C 14,7 C 14,0 C 76 % 1018,4 hPa 0,0 l/m 0,00 h 0,00 h 6 W/m 0,0 km/h (0 Bft) 94,08 %
01.09.2020 21:00 15,9 C 14,4 C 13,9 C 79 % 1018,6 hPa 0,0 l/m 0,00 h 0,00 h 0 W/m 0,0 km/h (0 Bft) 99,71 %
01.09.2020 22:00 15,4 C 14,1 C 13,4 C 80 % 1018,7 hPa 0,0 l/m 0,00 h 0,00 h 0 W/m 0,2 km/h (0 Bft) 98,36 %
01.09.2020 23:00 14,9 C 13,3 C 12,7 C 82 % 1018,7 hPa 0,0 l/m 0,00 h 0,00 h 0 W/m 0,0 km/h (0 Bft) 96,80 %
02.09.2020 00:00 14,2 C 12,5 C 12,3 C 84 % 1018,8 hPa 0,0 l/m 0,00 h 0,00 h 0 W/m 0,0 km/h (0 Bft) 97,09 %
02.09.2020 01:00 13,7 C 12,3 C 12,1 C 86 % 1018,7 hPa 0,0 l/m 0,00 h 0,00 h 0 W/m 0,4 km/h (0 Bft) 96,94 %
02.09.2020 02:00 12,9 C 10,8 C 10,7 C 87 % 1018,5 hPa 0,0 l/m 0,00 h 0,00 h 0 W/m 0,1 km/h (0 Bft) 98,01 %
02.09.2020 03:00 12,0 C 10,3 C 10,2 C 89 % 1018,5 hPa 0,0 l/m 0,00 h 0,00 h 0 W/m 0,2 km/h (0 Bft) 96,16 %
02.09.2020 04:00 11,5 C 10,0 C 10,0 C 91 % 1018,3 hPa 0,0 l/m 0,00 h 0,00 h 0 W/m 0,0 km/h (0 Bft) 97,39 %
02.09.2020 05:00 11,1 C 9,7 C 9,7 C 92 % 1018,1 hPa 0,0 l/m 0,00 h 0,00 h 0 W/m 0,3 km/h (0 Bft) 95,75 %
02.09.2020 06:00 10,8 C 9,4 C 9,4 C 93 % 1018,4 hPa 0,0 l/m 0,00 h 0,00 h 3 W/m 0,2 km/h (0 Bft) 98,56 %
02.09.2020 07:00 10,5 C 9,5 C 9,4 C 94 % 1018,6 hPa 0,0 l/m 0,00 h 0,00 h 18 W/m 0,0 km/h (0 Bft) 97,00 %
02.09.2020 08:00 10,9 C 11,0 C 10,5 C 96 % 1018,9 hPa 0,0 l/m 0,00 h 0,00 h 40 W/m 0,7 km/h (0 Bft) 96,31 %
02.09.2020 09:00 13,0 C 19,3 C 15,1 C 98 % 1019,1 hPa 0,0 l/m 1,00 h 0,00 h 364 W/m 2,7 km/h (1 Bft) 96,95 %
02.09.2020 10:00 17,3 C 24,8 C 20,2 C 88 % 1019,2 hPa 0,0 l/m 1,00 h 0,00 h 539 W/m 3,8 km/h (1 Bft) 98,72 %
02.09.2020 11:00 20,7 C 27,6 C 17,5 C 72 % 1019,4 hPa 0,0 l/m 1,00 h 0,00 h 675 W/m 5,7 km/h (1 Bft) 94,94 %
02.09.2020 12:00 22,8 C 29,3 C 19,0 C 62 % 1019,1 hPa 0,0 l/m 1,00 h 0,00 h 793 W/m 7,1 km/h (2 Bft) 97,27 %
02.09.2020 13:00 23,7 C 27,1 C 20,1 C 57 % 1018,9 hPa 0,0 l/m 0,57 h 0,00 h 551 W/m 5,8 km/h (2 Bft) 98,15 %
02.09.2020 14:00 22,5 C 24,6 C 19,4 C 61 % 1018,7 hPa 0,0 l/m 0,33 h 0,00 h 377 W/m 3,2 km/h (1 Bft) 98,29 %
02.09.2020 15:00 23,2 C 27,5 C 20,8 C 56 % 1018,4 hPa 0,0 l/m 0,93 h 0,00 h 655 W/m 8,5 km/h (2 Bft) 97,30 %
02.09.2020 16:00 24,2 C 27,5 C 21,5 C 52 % 1018,1 hPa 0,0 l/m 1,00 h 0,00 h 565 W/m 8,8 km/h (2 Bft) 97,43 %
02.09.2020 17:00 24,6 C 26,5 C 21,1 C 50 % 1018,0 hPa 0,0 l/m 1,00 h 0,00 h 409 W/m 6,3 km/h (2 Bft) 99,07 %
02.09.2020 18:00 23,2 C 21,8 C 18,6 C 54 % 1018,1 hPa 0,0 l/m 0,37 h 0,00 h 136 W/m 4,5 km/h (1 Bft) 95,44 %
02.09.2020 19:00 21,0 C 18,8 C 16,8 C 59 % 1018,5 hPa 0,0 l/m 0,00 h 0,00 h 30 W/m 1,8 km/h (1 Bft) 98,22 %
02.09.2020 20:00 18,7 C 15,7 C 14,4 C 67 % 1019,0 hPa 0,0 l/m 0,00 h 0,00 h 6 W/m 0,0 km/h (0 Bft) 98,94 %
02.09.2020 21:00 16,4 C 13,9 C 12,8 C 74 % 1019,4 hPa 0,0 l/m 0,00 h 0,00 h 0 W/m 0,0 km/h (0 Bft) 96,22 %
02.09.2020 22:00 14,8 C 12,4 C 11,8 C 79 % 1019,5 hPa 0,0 l/m 0,00 h 0,00 h 0 W/m 0,0 km/h (0 Bft) 95,73 %
02.09.2020 23:00 13,6 C 12,4 C 11,4 C 82 % 1019,5 hPa 0,0 l/m 0,00 h 0,00 h 0 W/m 0,2 km/h (0 Bft) 98,88 %
03.09.2020 00:00 13,2 C 12,0 C 11,2 C 85 % 1019,5 hPa 0,0 l/m 0,00 h 0,00 h 0 W/m 0,0 km/h (0 Bft) 98,15 %
03.09.2020 01:00 12,9 C 11,6 C 10,9 C 86 % 1019,4 hPa 0,0 l/m 0,00 h 0,00 h 0 W/m 0,0 km/h (0 Bft) 97,16 %
03.09.2020 02:00 12,5 C 11,4 C 10,6 C 88 % 1019,3 hPa 0,0 l/m 0,00 h 0,00 h 0 W/m 0,1 km/h (0 Bft) 96,37 %
03.09.2020 03:00 12,4 C 12,1 C 11,4 C 92 % 1019,3 hPa 0,0 l/m 0,00 h 0,00 h 0 W/m 0,3 km/h (0 Bft) 98,65 %
03.09.2020 04:00 12,9 C 12,2 C 12,1 C 93 % 1019,2 hPa 0,0 l/m 0,00 h 0,00 h 0 W/m 1,1 km/h (0 Bft) 97,03 %
03.09.2020 05:00 13,0 C 12,6 C 12,2 C 92 % 1018,8 hPa 0,0 l/m 0,00 h 0,00 h 0 W/m 0,5 km/h (0 Bft) 98,79 %
03.09.2020 06:00 13,3 C 12,7 C 12,2 C 92 % 1018,6 hPa 0,0 l/m 0,00 h 0,00 h 0 W/m 1,5 km/h (1 Bft) 95,59 %
03.09.2020 07:00 13,4 C 12,8 C 12,2 C 91 % 1019,0 hPa 0,0 l/m 0,00 h 0,00 h 11 W/m 4,1 km/h (1 Bft) 96,07 %
03.09.2020 08:00 13,4 C 12,6 C 12,6 C 91 % 1019,3 hPa 0,0 l/m 0,00 h 0,40 h 34 W/m 8,1 km/h (2 Bft) 99,87 %
03.09.2020 09:00 13,7 C 12,3 C 12,2 C 93 % 1019,4 hPa 0,4 l/m 0,00 h 0,73 h 56 W/m 7,2 km/h (2 Bft) 97,75 %
03.09.2020 10:00 14,2 C 13,3 C 12,9 C 95 % 1019,9 hPa 0,2 l/m 0,00 h 0,67 h 90 W/m 4,6 km/h (1 Bft) 95,29 %
03.09.2020 11:00 14,8 C 13,5 C 13,0 C 95 % 1020,1 hPa 0,6 l/m 0,00 h 0,83 h 85 W/m 14,9 km/h (3 Bft) 98,91 %
03.09.2020 12:00 14,8 C 13,2 C 12,8 C 95 % 1020,1 hPa 0,8 l/m 0,00 h 0,50 h 81 W/m 14,7 km/h (3 Bft) 97,25 %
03.09.2020 13:00 14,6 C 13,5 C 13,0 C 96 % 1019,8 hPa 0,6 l/m 0,00 h 0,53 h 92 W/m 14,4 km/h (3 Bft) 96,83 %
03.09.2020 14:00 14,7 C 13,5 C 13,2 C 97 % 1019,3 hPa 0,4 l/m 0,00 h 0,73 h 84 W/m 17,7 km/h (3 Bft) 98,16 %
03.09.2020 15:00 15,2 C 14,7 C 13,8 C 97 % 1018,9 hPa 0,0 l/m 0,00 h 0,03 h 160 W/m 19,0 km/h (3 Bft) 96,52 %
03.09.2020 16:00 15,9 C 16,0 C 14,3 C 97 % 1018,8 hPa 0,0 l/m 0,00 h 0,00 h 105 W/m 16,1 km/h (3 Bft) 99,03 %
03.09.2020 17:00 16,6 C 16,8 C 14,9 C 95 % 1018,7 hPa 0,0 l/m 0,00 h 0,00 h 83 W/m 12,4 km/h (3 Bft) 97,58 %
03.09.2020 18:00 17,3 C 17,1 C 15,0 C 92 % 1018,5 hPa 0,0 l/m 0,00 h 0,00 h 56 W/m 11,7 km/h (2 Bft) 95,83 %
03.09.2020 19:00 17,6 C 17,1 C 15,0 C 90 % 1018,5 hPa 0,0 l/m 0,00 h 0,00 h 18 W/m 9,2 km/h (2 Bft) 99,57 %
03.09.2020 20:00 17,7 C 17,0 C 15,0 C 89 % 1018,7 hPa 0,0 l/m 0,00 h 0,00 h 0 W/m 6,4 km/h (2 Bft) 96,94 %
03.09.2020 21:00 18,1 C 17,8 C 15,3 C 87 % 1019,0 hPa 0,0 l/m 0,00 h 0,00 h 0 W/m 8,1 km/h (2 Bft) 96,21 %
03.09.2020 22:00 18,9 C 18,6 C 16,2 C 84 % 1019,2 hPa 0,0 l/m 0,00 h 0,00 h 0 W/m 14,2 km/h (3 Bft) 99,65 %
03.09.2020 23:00 19,6 C 19,0 C 17,7 C 83 % 1019,4 hPa 0,0 l/m 0,00 h 0,00 h 0 W/m 19,0 km/h (3 Bft) 96,36 %
04.09.2020 00:00 20,2 C 19,4 C 18,3 C 83 % 1019,4 hPa 0,0 l/m 0,00 h 0,00 h 0 W/m 22,5 km/h (4 Bft) 96,90 %
04.09.2020 01:00 20,1 C 18,9 C 18,3 C 87 % 1019,5 hPa 0,0 l/m 0,00 h 0,00 h 0 W/m 17,7 km/h (3 Bft) 99,29 %
04.09.2020 02:00 19,9 C 18,9 C 18,2 C 90 % 1019,5 hPa 0,0 l/m 0,00 h 0,00 h 0 W/m 14,5 km/h (3 Bft) 97,43 %
04.09.2020 03:00 19,7 C 18,9 C 18,1 C 92 % 1019,6 hPa 0,0 l/m 0,00 h 0,00 h 0 W/m 13,1 km/h (3 Bft) 95,87 %
04.09.2020 04:00 19,7 C 18,9 C 18,1 C 92 % 1019,4 hPa 0,0 l/m 0,00 h 0,00 h 0 W/m 11,8 km/h (2 Bft) 98,16 %
04.09.2020 05:00 19,5 C 18,4 C 17,8 C 92 % 1019,7 hPa 0,0 l/m 0,00 h 0,03 h 0 W/m 10,5 km/h (2 Bft) 99,07 %
04.09.2020 06:00 19,2 C 17,3 C 17,1 C 93 % 1020,0 hPa 0,4 l/m 0,00 h 0,23 h 0 W/m 5,9 km/h (2 Bft) 96,10 %
04.09.2020 07:00 18,8 C 17,2 C 16,7 C 96 % 1020,4 hPa 1,0 l/m 0,00 h 0,23 h 16 W/m 2,4 km/h (1 Bft) 97,15 %
04.09.2020 08:00 18,6 C 17,3 C 16,8 C 98 % 1020,7 hPa 0,4 l/m 0,00 h 0,13 h 35 W/m 4,5 km/h (1 Bft) 99,72 %
04.09.2020 09:00 18,7 C 17,6 C 17,1 C 99 % 1021,1 hPa 0,0 l/m 0,00 h 0,00 h 52 W/m 5,9 km/h (2 Bft) 96,54 %
04.09.2020 10:00 18,0 C 16,9 C 16,7 C 99 % 1021,5 hPa 0,2 l/m 0,00 h 0,20 h 61 W/m 3,2 km/h (1 Bft) 96,66 %
04.09.2020 11:00 18,5 C 17,5 C 17,1 C 99 % 1021,7 hPa 0,2 l/m 0,00 h 0,23 h 111 W/m 3,7 km/h (1 Bft) 99,86 %
04.09.2020 12:00 18,6 C 18,1 C 17,6 C 99 % 1021,7 hPa 0,0 l/m 0,10 h 0,00 h 221 W/m 10,4 km/h (2 Bft) 96,70 %
04.09.2020 13:00 19,0 C 18,8 C 17,9 C 98 % 1021,5 hPa 0,0 l/m 0,13 h 0,00 h 227 W/m 12,5 km/h (3 Bft) 96,07 %
04.09.2020 14:00 19,9 C 21,4 C 19,2 C 92 % 1021,5 hPa 0,0 l/m 0,53 h 0,00 h 373 W/m 16,5 km/h (3 Bft) 99,50 %
04.09.2020 15:00 20,7 C 21,3 C 19,4 C 88 % 1021,2 hPa 0,0 l/m 0,10 h 0,00 h 255 W/m 16,1 km/h (3 Bft) 97,08 %
04.09.2020 16:00 20,7 C 20,7 C 19,3 C 87 % 1020,9 hPa 0,0 l/m 0,00 h 0,00 h 149 W/m 12,6 km/h (3 Bft) 96,04 %
04.09.2020 17:00 20,7 C 20,8 C 19,4 C 86 % 1020,6 hPa 0,0 l/m 0,27 h 0,00 h 157 W/m 11,7 km/h (2 Bft) 98,30 %
04.09.2020 18:00 21,1 C 21,3 C 19,6 C 85 % 1020,2 hPa 0,0 l/m 0,57 h 0,00 h 153 W/m 10,7 km/h (2 Bft) 98,38 %
04.09.2020 19:00 20,8 C 19,3 C 18,3 C 85 % 1019,8 hPa 0,0 l/m 0,00 h 0,00 h 23 W/m 4,2 km/h (1 Bft) 96,37 %
04.09.2020 20:00 19,7 C 18,2 C 17,3 C 87 % 1019,9 hPa 0,0 l/m 0,00 h 0,00 h 3 W/m 1,0 km/h (0 Bft) 97,30 %
04.09.2020 21:00 18,9 C 17,4 C 16,7 C 88 % 1020,1 hPa 0,0 l/m 0,00 h 0,00 h 0 W/m 1,6 km/h (1 Bft) 99,15 %
04.09.2020 22:00 17,9 C 16,5 C 16,3 C 85 % 1020,2 hPa 0,0 l/m 0,00 h 0,00 h 0 W/m 3,8 km/h (1 Bft) 95,31 %
04.09.2020 23:00 17,1 C 15,7 C 15,3 C 85 % 1019,7 hPa 0,0 l/m 0,00 h 0,00 h 0 W/m 0,3 km/h (0 Bft) 97,37 %
05.09.2020 00:00 16,5 C 15,5 C 15,0 C 84 % 1019,3 hPa 0,0 l/m 0,00 h 0,00 h 0 W/m 0,0 km/h (0 Bft) 99,65 %
05.09.2020 01:00 16,3 C 15,0 C 14,9 C 85 % 1018,9 hPa 0,0 l/m 0,00 h 0,00 h 0 W/m 0,0 km/h (0 Bft) 96,01 %
05.09.2020 02:00 16,0 C 14,7 C 14,3 C 86 % 1018,4 hPa 0,0 l/m 0,00 h 0,40 h 0 W/m 0,2 km/h (0 Bft) 97,47 %
05.09.2020 03:00 15,6 C 12,9 C 13,0 C 89 % 1018,5 hPa 3,6 l/m 0,00 h 0,90 h 0 W/m 1,9 km/h (1 Bft) 99,01 %
05.09.2020 04:00 14,6 C 12,8 C 12,7 C 93 % 1018,0 hPa 0,8 l/m 0,00 h 0,57 h 0 W/m 2,5 km/h (1 Bft) 96,84 %
05.09.2020 05:00 14,1 C 12,3 C 12,2 C 95 % 1018,0 hPa 1,4 l/m 0,00 h 0,70 h 0 W/m 3,0 km/h (1 Bft) 97,94 %
05.09.2020 06:00 13,8 C 12,4 C 12,3 C 97 % 1017,7 hPa 0,0 l/m 0,00 h 0,03 h 0 W/m 0,7 km/h (0 Bft) 96,61 %
05.09.2020 07:00 13,9 C 12,8 C 12,7 C 98 % 1017,9 hPa 0,2 l/m 0,00 h 0,07 h 22 W/m 5,0 km/h (1 Bft) 97,79 %
05.09.2020 08:00 14,0 C 13,0 C 12,8 C 98 % 1017,6 hPa 0,2 l/m 0,00 h 0,27 h 36 W/m 3,8 km/h (1 Bft) 99,72 %
05.09.2020 09:00 14,2 C 13,3 C 12,8 C 98 % 1018,1 hPa 0,2 l/m 0,00 h 0,13 h 41 W/m 5,5 km/h (1 Bft) 95,41 %
05.09.2020 10:00 14,1 C 13,0 C 12,8 C 99 % 1018,9 hPa 0,0 l/m 0,00 h 0,13 h 55 W/m 6,6 km/h (2 Bft) 98,24 %
05.09.2020 11:00 14,0 C 14,0 C 13,2 C 99 % 1019,2 hPa 0,0 l/m 0,03 h 0,00 h 177 W/m 4,5 km/h (1 Bft) 98,87 %
05.09.2020 12:00 16,3 C 21,5 C 14,4 C 96 % 1019,2 hPa 0,0 l/m 0,80 h 0,00 h 653 W/m 11,3 km/h (2 Bft) 94,61 %
05.09.2020 13:00 18,7 C 23,6 C 14,9 C 81 % 1019,2 hPa 0,0 l/m 0,70 h 0,00 h 634 W/m 11,3 km/h (2 Bft) 98,36 %
05.09.2020 14:00 20,1 C 23,2 C 16,0 C 70 % 1019,0 hPa 0,0 l/m 0,53 h 0,00 h 466 W/m 10,7 km/h (2 Bft) 98,72 %
05.09.2020 15:00 19,6 C 20,4 C 16,8 C 69 % 1019,0 hPa 0,0 l/m 0,23 h 0,00 h 273 W/m 11,4 km/h (2 Bft) 97,15 %
05.09.2020 16:00 20,4 C 23,3 C 18,2 C 65 % 1018,9 hPa 0,0 l/m 0,77 h 0,00 h 499 W/m 13,0 km/h (3 Bft) 98,37 %
05.09.2020 17:00 18,9 C 18,2 C 16,3 C 68 % 1018,9 hPa 0,0 l/m 0,00 h 0,00 h 112 W/m 9,3 km/h (2 Bft) 96,08 %
05.09.2020 18:00 18,0 C 17,5 C 16,0 C 71 % 1019,0 hPa 0,0 l/m 0,33 h 0,00 h 105 W/m 12,7 km/h (3 Bft) 97,89 %
05.09.2020 19:00 16,8 C 15,4 C 14,5 C 73 % 1019,4 hPa 0,0 l/m 0,03 h 0,00 h 35 W/m 9,2 km/h (2 Bft) 97,72 %
05.09.2020 20:00 15,1 C 12,9 C 12,4 C 75 % 1019,7 hPa 0,0 l/m 0,00 h 0,00 h 6 W/m 2,2 km/h (1 Bft) 97,79 %
05.09.2020 21:00 13,6 C 11,2 C 10,5 C 79 % 1020,0 hPa 0,0 l/m 0,00 h 0,00 h 0 W/m 0,0 km/h (0 Bft) 96,13 %
05.09.2020 22:00 12,2 C 9,9 C 9,4 C 84 % 1020,2 hPa 0,0 l/m 0,00 h 0,00 h 0 W/m 0,0 km/h (0 Bft) 96,71 %
05.09.2020 23:00 11,2 C 9,6 C 9,0 C 87 % 1020,4 hPa 0,0 l/m 0,00 h 0,00 h 0 W/m 0,0 km/h (0 Bft) 96,45 %
06.09.2020 00:00 10,5 C 8,8 C 8,5 C 89 % 1020,4 hPa 0,0 l/m 0,00 h 0,00 h 0 W/m 0,0 km/h (0 Bft) 99,15 %
06.09.2020 01:00 9,9 C 8,4 C 8,1 C 90 % 1020,3 hPa 0,0 l/m 0,00 h 0,00 h 0 W/m 0,0 km/h (0 Bft) 98,29 %
06.09.2020 02:00 9,4 C 7,9 C 7,7 C 91 % 1020,2 hPa 0,0 l/m 0,00 h 0,00 h 0 W/m 0,0 km/h (0 Bft) 97,08 %
06.09.2020 03:00 8,9 C 7,4 C 7,2 C 92 % 1020,1 hPa 0,0 l/m 0,00 h 0,00 h 0 W/m 0,0 km/h (0 Bft) 95,30 %
06.09.2020 04:00 8,5 C 7,4 C 7,1 C 93 % 1020,0 hPa 0,0 l/m 0,00 h 0,00 h 0 W/m 0,6 km/h (0 Bft) 99,63 %
06.09.2020 05:00 8,6 C 7,9 C 7,6 C 95 % 1019,8 hPa 0,0 l/m 0,00 h 0,00 h 0 W/m 0,6 km/h (0 Bft) 97,43 %
06.09.2020 06:00 8,4 C 7,3 C 7,0 C 95 % 1019,7 hPa 0,0 l/m 0,00 h 0,00 h 0 W/m 0,0 km/h (0 Bft) 97,75 %
06.09.2020 07:00 8,6 C 8,4 C 7,9 C 96 % 1019,8 hPa 0,0 l/m 0,00 h 0,00 h 15 W/m 0,5 km/h (0 Bft) 95,80 %
06.09.2020 08:00 9,3 C 10,3 C 9,1 C 97 % 1020,1 hPa 0,0 l/m 0,00 h 0,00 h 39 W/m 1,4 km/h (1 Bft) 96,89 %
06.09.2020 09:00 11,5 C 16,3 C 14,0 C 98 % 1020,3 hPa 0,0 l/m 0,80 h 0,00 h 301 W/m 7,0 km/h (2 Bft) 97,22 %
06.09.2020 10:00 15,9 C 22,6 C 18,2 C 84 % 1020,5 hPa 0,0 l/m 1,00 h 0,00 h 525 W/m 7,7 km/h (2 Bft) 95,66 %
06.09.2020 11:00 19,1 C 25,6 C 16,6 C 71 % 1020,4 hPa 0,0 l/m 0,97 h 0,00 h 673 W/m 7,3 km/h (2 Bft) 96,58 %
06.09.2020 12:00 20,9 C 27,1 C 17,6 C 62 % 1020,2 hPa 0,0 l/m 0,97 h 0,00 h 760 W/m 8,3 km/h (2 Bft) 99,85 %
06.09.2020 13:00 19,7 C 19,7 C 16,4 C 62 % 1020,0 hPa 0,0 l/m 0,13 h 0,00 h 229 W/m 6,2 km/h (2 Bft) 96,44 %
06.09.2020 14:00 19,7 C 24,6 C 18,2 C 60 % 1019,8 hPa 0,0 l/m 0,60 h 0,00 h 589 W/m 8,7 km/h (2 Bft) 98,29 %
06.09.2020 15:00 20,3 C 20,1 C 17,3 C 60 % 1019,8 hPa 0,0 l/m 0,20 h 0,00 h 188 W/m 8,4 km/h (2 Bft) 97,51 %
06.09.2020 16:00 18,1 C 17,7 C 16,1 C 68 % 1020,0 hPa 0,0 l/m 0,00 h 0,00 h 105 W/m 6,6 km/h (2 Bft) 96,02 %
06.09.2020 17:00 17,7 C 17,2 C 15,8 C 69 % 1020,1 hPa 0,0 l/m 0,00 h 0,00 h 86 W/m 3,5 km/h (1 Bft) 98,72 %
06.09.2020 18:00 17,8 C 17,0 C 15,9 C 69 % 1020,2 hPa 0,0 l/m 0,00 h 0,00 h 60 W/m 4,4 km/h (1 Bft) 97,16 %
06.09.2020 19:00 17,3 C 15,9 C 14,9 C 72 % 1020,4 hPa 0,0 l/m 0,00 h 0,00 h 22 W/m 2,8 km/h (1 Bft) 97,58 %
06.09.2020 20:00 16,2 C 13,9 C 12,8 C 76 % 1020,7 hPa 0,0 l/m 0,00 h 0,00 h 5 W/m 0,2 km/h (0 Bft) 97,86 %
06.09.2020 21:00 14,6 C 12,2 C 11,6 C 81 % 1021,2 hPa 0,0 l/m 0,00 h 0,00 h 0 W/m 0,0 km/h (0 Bft) 97,01 %
06.09.2020 22:00 13,2 C 10,7 C 10,3 C 85 % 1021,6 hPa 0,0 l/m 0,00 h 0,00 h 0 W/m 0,0 km/h (0 Bft) 98,15 %
06.09.2020 23:00 12,0 C 10,0 C 9,5 C 87 % 1022,0 hPa 0,0 l/m 0,00 h 0,00 h 0 W/m 0,0 km/h (0 Bft) 98,29 %
Min-Datum _ 06.09.20 06.09.20 06.09.20 02.09.20 31.08.20 - - - - 31.08.20 02.09.20
_ Min-Zeit 04:48 06:38 04:20 16:40 00:00 - - - - 00:02 09:10
Minimum _ 8,3 C 6,7 C 6,7 C 47 % 1014,2 hPa - - - - 0,0 km/h (0 Bft) 48,57 %
Max-Datum _ 02.09.20 02.09.20 02.09.20 31.08.20 06.09.20 05.09.20 02.09.20 31.08.20 31.08.20 03.09.20 31.08.20
_ Max-Zeit 17:42 13:30 10:08 07:02 23:44 03:08 12:08 00:07 14:28 23:32 00:42
Maximum _ 24,7 C 31,1 C 25,6 C 100 % 1022,1 hPa 3,6 l/m 0,07 h 0,05 h 999 W/m 35,4 km/h
S-SO (5 Bft)
100,00 %
Durchschnitt _ 16,1 C 16,0 C 14,3 C 85 % 1019,3 hPa #14,6 l/m #25:42 h #10:22 h 213 W/m 5,1 km/h (1 Bft) 97,45 %
© 2020 W. Hausmann